Terminal Aerodrome Forecast
Issued by NWS Cleveland, OH

Home | Current Version | Previous Version | Graphics & Text | Print | Product List | Glossary On
Versions: 1 2 3 4 5 6 7 8 9 10 11 12 13 14 15 16 17 18 19 20 21 22 23 24 25
000
FTUS41 KCLE 191100
TAFTOL
TAF
KTOL 191121Z 1912/2012 00000KT P6SM BKN060
     FM191300 20006KT P6SM BKN060
     FM192000 23008KT P6SM BKN035
      TEMPO 1920/1924 3SM TSRA OVC025CB
     FM200000 15006KT 6SM -TSRA SCT035CB OVC050
     FM200600 19005KT 4SM BR OVC050=

USA.gov is the U.S. government's official web portal to all federal, state and local government web resources and services.